This is the latest recevied weather packets stored in our database for station/object FW7644. If no packets are shown the sender has not sent any weather packets the latest 10 day(s).
| Time | Temp. | Humidity | Pressure | Rain* | Wind** | Luminosity | Snow |
|---|---|---|---|---|---|---|---|
| 1777642832 | 21.67° C | 65% | 1023.3 hPa | 0 mm | - | - | - |
| 1777642530 | 22.22° C | 65% | 1023.4 hPa | 0 mm | - | - | - |
| 1777642228 | 21.67° C | 67% | 1023.5 hPa | 0 mm | - | - | - |
| 1777641925 | 21.11° C | 71% | 1023.5 hPa | 0 mm | - | - | - |
| 1777641623 | 21.11° C | 71% | 1023.5 hPa | 0 mm | - | - | - |
| 1777641322 | 20° C | 74% | 1023.5 hPa | 0 mm | - | - | - |
| 1777641019 | 20° C | 72% | 1023.6 hPa | 0 mm | - | - | - |
| 1777640717 | 20° C | 74% | 1023.6 hPa | 0 mm | - | - | - |
| 1777640415 | 20° C | 73% | 1023.7 hPa | 0 mm | - | - | - |
| 1777640113 | 19.44° C | 74% | 1023.7 hPa | 0 mm | - | - | - |
| 1777639811 | 19.44° C | 75% | 1023.8 hPa | 0 mm | - | - | - |
| 1777639509 | 18.89° C | 78% | 1023.8 hPa | 0 mm | - | - | - |
| 1777639206 | 17.78° C | 84% | 1023.8 hPa | 0 mm | - | - | - |
| 1777638905 | 16.67° C | 92% | 1023.8 hPa | 0 mm | - | - | - |
| 1777638602 | 15.56° C | 94% | 1023.7 hPa | 0 mm | - | - | - |
| 1777638300 | 15° C | 96% | 1023.7 hPa | 0 mm | - | - | - |
| 1777637998 | 14.44° C | 97% | 1023.7 hPa | 0 mm | - | - | - |
| 1777637696 | 13.89° C | 98% | 1023.7 hPa | 0 mm | - | - | - |
| 1777637394 | 13.89° C | 99% | 1023.6 hPa | 0 mm | - | - | - |
| 1777637092 | 13.89° C | 99% | 1023.6 hPa | 0 mm | - | - | - |
| 1777636790 | 12.78° C | 99% | 1023.6 hPa | 0 mm | - | - | - |
| 1777636487 | 13.33° C | 99% | 1023.6 hPa | 0 mm | - | - | - |
| 1777636185 | 13.33° C | 99% | 1023.5 hPa | 0 mm | - | - | - |
| 1777635883 | 13.89° C | 99% | 1023.5 hPa | 0 mm | - | - | - |
| 1777635581 | 12.78° C | 99% | 1023.4 hPa | 0 mm | - | - | - |
* Rain latest hour (hover to see other rain measurements)
** Current wind speed in m/s (hover to see current wind gust speed)